TAF Text Data
IDs:
Format:
Raw Decoded Include METAR

Data at: 0441 UTC 20 Sep 2020

KBWI 192322Z 2000/2106 03005KT P6SM SCT250
  FM200200 01004KT P6SM SKC
  FM201300 04008KT P6SM SKC